sensor_id;sensor_type;location;lat;lon;timestamp;P1;durP1;ratioP1;P2;durP2;ratioP2
69937;SDS011;57248;47.320;15.998;2022-07-23T00:01:17;11.17;;;6.57;;
69937;SDS011;57248;47.320;15.998;2022-07-23T00:03:42;11.70;;;7.37;;
69937;SDS011;57248;47.320;15.998;2022-07-23T00:06:08;9.10;;;6.73;;
69937;SDS011;57248;47.320;15.998;2022-07-23T00:08:33;11.50;;;7.23;;
69937;SDS011;57248;47.320;15.998;2022-07-23T00:10:59;10.43;;;6.55;;
69937;SDS011;57248;47.320;15.998;2022-07-23T00:13:25;9.97;;;6.90;;
69937;SDS011;57248;47.320;15.998;2022-07-23T00:15:51;8.90;;;6.68;;
69937;SDS011;57248;47.320;15.998;2022-07-23T00:18:17;8.93;;;6.77;;
69937;SDS011;57248;47.320;15.998;2022-07-23T00:20:42;10.32;;;7.03;;
69937;SDS011;57248;47.320;15.998;2022-07-23T00:23:08;10.90;;;7.13;;
69937;SDS011;57248;47.320;15.998;2022-07-23T00:25:33;8.20;;;6.53;;
69937;SDS011;57248;47.320;15.998;2022-07-23T00:27:59;12.20;;;7.47;;
69937;SDS011;57248;47.320;15.998;2022-07-23T00:30:26;10.45;;;6.95;;
69937;SDS011;57248;47.320;15.998;2022-07-23T00:32:55;10.00;;;7.67;;
69937;SDS011;57248;47.320;15.998;2022-07-23T00:35:26;9.57;;;7.13;;
69937;SDS011;57248;47.320;15.998;2022-07-23T00:37:54;9.60;;;7.38;;
69937;SDS011;57248;47.320;15.998;2022-07-23T00:40:20;8.88;;;7.00;;
69937;SDS011;57248;47.320;15.998;2022-07-23T00:42:46;10.57;;;7.20;;
69937;SDS011;57248;47.320;15.998;2022-07-23T00:45:11;12.95;;;6.80;;
69937;SDS011;57248;47.320;15.998;2022-07-23T00:47:37;11.93;;;7.25;;
69937;SDS011;57248;47.320;15.998;2022-07-23T00:50:04;10.13;;;7.00;;
69937;SDS011;57248;47.320;15.998;2022-07-23T00:52:32;10.93;;;7.15;;
69937;SDS011;57248;47.320;15.998;2022-07-23T00:54:58;9.48;;;7.18;;
69937;SDS011;57248;47.320;15.998;2022-07-23T00:57:23;12.48;;;6.95;;
69937;SDS011;57248;47.320;15.998;2022-07-23T00:59:50;9.30;;;6.60;;
69937;SDS011;57248;47.320;15.998;2022-07-23T01:02:16;10.82;;;7.10;;
69937;SDS011;57248;47.320;15.998;2022-07-23T01:04:42;9.82;;;6.90;;
69937;SDS011;57248;47.320;15.998;2022-07-23T01:07:07;10.40;;;6.40;;
69937;SDS011;57248;47.320;15.998;2022-07-23T01:09:33;11.52;;;6.65;;
69937;SDS011;57248;47.320;15.998;2022-07-23T01:11:59;11.07;;;7.00;;
69937;SDS011;57248;47.320;15.998;2022-07-23T01:14:25;19.92;;;7.82;;
69937;SDS011;57248;47.320;15.998;2022-07-23T01:16:51;9.40;;;6.88;;
69937;SDS011;57248;47.320;15.998;2022-07-23T01:19:17;10.73;;;7.00;;
69937;SDS011;57248;47.320;15.998;2022-07-23T01:21:46;11.38;;;7.18;;
69937;SDS011;57248;47.320;15.998;2022-07-23T01:24:14;11.55;;;7.38;;
69937;SDS011;57248;47.320;15.998;2022-07-23T01:26:49;10.13;;;6.87;;
69937;SDS011;57248;47.320;15.998;2022-07-23T01:29:16;9.75;;;7.30;;
69937;SDS011;57248;47.320;15.998;2022-07-23T01:31:44;9.27;;;6.90;;
69937;SDS011;57248;47.320;15.998;2022-07-23T01:34:10;9.57;;;6.70;;
69937;SDS011;57248;47.320;15.998;2022-07-23T01:36:35;9.25;;;7.30;;
69937;SDS011;57248;47.320;15.998;2022-07-23T01:39:02;11.07;;;8.03;;
69937;SDS011;57248;47.320;15.998;2022-07-23T01:41:29;13.40;;;7.53;;
69937;SDS011;57248;47.320;15.998;2022-07-23T01:43:54;14.18;;;8.05;;
69937;SDS011;57248;47.320;15.998;2022-07-23T01:46:20;13.17;;;8.07;;
69937;SDS011;57248;47.320;15.998;2022-07-23T01:48:48;10.13;;;8.05;;
69937;SDS011;57248;47.320;15.998;2022-07-23T01:51:32;13.75;;;7.53;;
69937;SDS011;57248;47.320;15.998;2022-07-23T01:54:10;13.38;;;8.15;;
69937;SDS011;57248;47.320;15.998;2022-07-23T01:56:35;11.43;;;7.87;;
69937;SDS011;57248;47.320;15.998;2022-07-23T01:59:02;11.20;;;7.50;;
69937;SDS011;57248;47.320;15.998;2022-07-23T02:01:28;10.77;;;7.63;;
69937;SDS011;57248;47.320;15.998;2022-07-23T02:03:54;10.33;;;7.70;;
69937;SDS011;57248;47.320;15.998;2022-07-23T02:06:19;10.85;;;7.68;;
69937;SDS011;57248;47.320;15.998;2022-07-23T02:08:45;10.67;;;7.30;;
69937;SDS011;57248;47.320;15.998;2022-07-23T02:11:10;10.27;;;7.73;;
69937;SDS011;57248;47.320;15.998;2022-07-23T02:13:36;10.30;;;7.75;;
69937;SDS011;57248;47.320;15.998;2022-07-23T02:16:01;11.50;;;8.00;;
69937;SDS011;57248;47.320;15.998;2022-07-23T02:18:28;11.63;;;8.40;;
69937;SDS011;57248;47.320;15.998;2022-07-23T02:20:53;9.70;;;7.77;;
69937;SDS011;57248;47.320;15.998;2022-07-23T02:23:19;10.13;;;7.47;;
69937;SDS011;57248;47.320;15.998;2022-07-23T02:25:44;11.20;;;8.02;;
69937;SDS011;57248;47.320;15.998;2022-07-23T02:28:10;10.93;;;7.90;;
69937;SDS011;57248;47.320;15.998;2022-07-23T02:30:35;11.85;;;8.60;;
69937;SDS011;57248;47.320;15.998;2022-07-23T02:33:03;11.60;;;8.77;;
69937;SDS011;57248;47.320;15.998;2022-07-23T02:35:28;14.00;;;8.40;;
69937;SDS011;57248;47.320;15.998;2022-07-23T02:37:56;10.13;;;7.40;;
69937;SDS011;57248;47.320;15.998;2022-07-23T02:40:22;10.73;;;7.90;;
69937;SDS011;57248;47.320;15.998;2022-07-23T02:42:47;10.60;;;7.87;;
69937;SDS011;57248;47.320;15.998;2022-07-23T02:45:14;10.75;;;8.07;;
69937;SDS011;57248;47.320;15.998;2022-07-23T02:47:39;9.43;;;7.37;;
69937;SDS011;57248;47.320;15.998;2022-07-23T02:50:05;11.32;;;8.10;;
69937;SDS011;57248;47.320;15.998;2022-07-23T02:52:32;14.52;;;8.93;;
69937;SDS011;57248;47.320;15.998;2022-07-23T02:54:57;13.77;;;8.33;;
69937;SDS011;57248;47.320;15.998;2022-07-23T02:57:23;12.33;;;8.53;;
69937;SDS011;57248;47.320;15.998;2022-07-23T02:59:48;10.00;;;7.60;;
69937;SDS011;57248;47.320;15.998;2022-07-23T03:02:16;12.85;;;8.27;;
69937;SDS011;57248;47.320;15.998;2022-07-23T03:04:42;10.40;;;7.40;;
69937;SDS011;57248;47.320;15.998;2022-07-23T03:07:07;10.77;;;7.30;;
69937;SDS011;57248;47.320;15.998;2022-07-23T03:09:34;11.23;;;7.50;;
69937;SDS011;57248;47.320;15.998;2022-07-23T03:12:00;12.17;;;8.10;;
69937;SDS011;57248;47.320;15.998;2022-07-23T03:14:25;12.68;;;8.80;;
69937;SDS011;57248;47.320;15.998;2022-07-23T03:16:53;12.02;;;9.20;;
69937;SDS011;57248;47.320;15.998;2022-07-23T03:19:20;12.50;;;8.77;;
69937;SDS011;57248;47.320;15.998;2022-07-23T03:21:45;13.38;;;8.40;;
69937;SDS011;57248;47.320;15.998;2022-07-23T03:24:12;10.45;;;8.02;;
69937;SDS011;57248;47.320;15.998;2022-07-23T03:26:37;11.63;;;8.83;;
69937;SDS011;57248;47.320;15.998;2022-07-23T03:29:03;13.10;;;8.50;;
69937;SDS011;57248;47.320;15.998;2022-07-23T03:31:30;11.80;;;9.30;;
69937;SDS011;57248;47.320;15.998;2022-07-23T03:33:58;12.15;;;8.80;;
69937;SDS011;57248;47.320;15.998;2022-07-23T03:36:26;15.23;;;9.00;;
69937;SDS011;57248;47.320;15.998;2022-07-23T03:38:54;12.60;;;8.70;;
69937;SDS011;57248;47.320;15.998;2022-07-23T03:41:19;13.20;;;8.80;;
69937;SDS011;57248;47.320;15.998;2022-07-23T03:43:45;11.70;;;8.70;;
69937;SDS011;57248;47.320;15.998;2022-07-23T03:46:11;14.07;;;9.17;;
69937;SDS011;57248;47.320;15.998;2022-07-23T03:48:37;13.68;;;9.45;;
69937;SDS011;57248;47.320;15.998;2022-07-23T03:51:03;11.77;;;8.90;;
69937;SDS011;57248;47.320;15.998;2022-07-23T03:53:29;11.20;;;8.90;;
69937;SDS011;57248;47.320;15.998;2022-07-23T03:55:55;17.57;;;9.23;;
69937;SDS011;57248;47.320;15.998;2022-07-23T03:58:21;13.25;;;9.13;;
69937;SDS011;57248;47.320;15.998;2022-07-23T04:00:47;11.10;;;8.33;;
69937;SDS011;57248;47.320;15.998;2022-07-23T04:03:13;10.65;;;8.23;;
69937;SDS011;57248;47.320;15.998;2022-07-23T04:05:39;11.90;;;8.57;;
69937;SDS011;57248;47.320;15.998;2022-07-23T04:08:07;11.35;;;9.02;;
69937;SDS011;57248;47.320;15.998;2022-07-23T04:10:36;11.90;;;8.50;;
69937;SDS011;57248;47.320;15.998;2022-07-23T04:13:04;9.43;;;7.90;;
69937;SDS011;57248;47.320;15.998;2022-07-23T04:15:30;11.60;;;8.27;;
69937;SDS011;57248;47.320;15.998;2022-07-23T04:17:56;11.73;;;8.32;;
69937;SDS011;57248;47.320;15.998;2022-07-23T04:20:27;11.30;;;8.33;;
69937;SDS011;57248;47.320;15.998;2022-07-23T04:22:57;11.90;;;8.52;;
69937;SDS011;57248;47.320;15.998;2022-07-23T04:25:23;13.18;;;9.40;;
69937;SDS011;57248;47.320;15.998;2022-07-23T04:27:48;13.17;;;9.10;;
69937;SDS011;57248;47.320;15.998;2022-07-23T04:30:14;13.15;;;9.30;;
69937;SDS011;57248;47.320;15.998;2022-07-23T04:32:40;11.80;;;9.00;;
69937;SDS011;57248;47.320;15.998;2022-07-23T04:35:12;11.68;;;8.90;;
69937;SDS011;57248;47.320;15.998;2022-07-23T04:37:38;11.55;;;8.70;;
69937;SDS011;57248;47.320;15.998;2022-07-23T04:40:05;14.47;;;9.40;;
69937;SDS011;57248;47.320;15.998;2022-07-23T04:42:30;11.37;;;8.73;;
69937;SDS011;57248;47.320;15.998;2022-07-23T04:44:56;14.70;;;9.25;;
69937;SDS011;57248;47.320;15.998;2022-07-23T04:47:22;13.90;;;9.73;;
69937;SDS011;57248;47.320;15.998;2022-07-23T04:49:49;13.73;;;9.13;;
69937;SDS011;57248;47.320;15.998;2022-07-23T04:52:14;12.80;;;9.37;;
69937;SDS011;57248;47.320;15.998;2022-07-23T04:54:40;13.55;;;9.30;;
69937;SDS011;57248;47.320;15.998;2022-07-23T04:57:06;13.93;;;9.43;;
69937;SDS011;57248;47.320;15.998;2022-07-23T04:59:31;11.53;;;9.63;;
69937;SDS011;57248;47.320;15.998;2022-07-23T05:02:02;14.07;;;9.27;;
69937;SDS011;57248;47.320;15.998;2022-07-23T05:04:29;10.65;;;9.23;;
69937;SDS011;57248;47.320;15.998;2022-07-23T05:06:56;15.35;;;10.25;;
69937;SDS011;57248;47.320;15.998;2022-07-23T05:09:22;11.73;;;9.40;;
69937;SDS011;57248;47.320;15.998;2022-07-23T05:11:49;11.70;;;8.70;;
69937;SDS011;57248;47.320;15.998;2022-07-23T05:14:15;12.75;;;9.02;;
69937;SDS011;57248;47.320;15.998;2022-07-23T05:16:42;10.82;;;9.43;;
69937;SDS011;57248;47.320;15.998;2022-07-23T05:19:14;13.52;;;9.70;;
69937;SDS011;57248;47.320;15.998;2022-07-23T05:21:40;13.33;;;9.23;;
69937;SDS011;57248;47.320;15.998;2022-07-23T05:24:06;11.88;;;9.68;;
69937;SDS011;57248;47.320;15.998;2022-07-23T05:26:32;12.90;;;9.53;;
69937;SDS011;57248;47.320;15.998;2022-07-23T05:28:57;11.90;;;9.27;;
69937;SDS011;57248;47.320;15.998;2022-07-23T05:31:23;14.80;;;9.40;;
69937;SDS011;57248;47.320;15.998;2022-07-23T05:33:50;13.77;;;9.80;;
69937;SDS011;57248;47.320;15.998;2022-07-23T05:36:15;13.63;;;10.00;;
69937;SDS011;57248;47.320;15.998;2022-07-23T05:38:50;11.20;;;9.13;;
69937;SDS011;57248;47.320;15.998;2022-07-23T05:41:16;12.70;;;9.85;;
69937;SDS011;57248;47.320;15.998;2022-07-23T05:43:42;12.30;;;9.73;;
69937;SDS011;57248;47.320;15.998;2022-07-23T05:46:10;10.68;;;9.00;;
69937;SDS011;57248;47.320;15.998;2022-07-23T05:48:38;11.13;;;9.80;;
69937;SDS011;57248;47.320;15.998;2022-07-23T05:51:13;12.02;;;9.35;;
69937;SDS011;57248;47.320;15.998;2022-07-23T05:53:40;11.32;;;9.45;;
69937;SDS011;57248;47.320;15.998;2022-07-23T05:56:12;12.20;;;9.30;;
69937;SDS011;57248;47.320;15.998;2022-07-23T05:58:37;11.90;;;10.00;;
69937;SDS011;57248;47.320;15.998;2022-07-23T06:01:03;11.88;;;9.27;;
69937;SDS011;57248;47.320;15.998;2022-07-23T06:03:37;12.48;;;9.90;;
69937;SDS011;57248;47.320;15.998;2022-07-23T06:06:04;11.00;;;9.10;;
69937;SDS011;57248;47.320;15.998;2022-07-23T06:08:30;12.00;;;9.93;;
69937;SDS011;57248;47.320;15.998;2022-07-23T06:10:56;14.32;;;10.18;;
69937;SDS011;57248;47.320;15.998;2022-07-23T06:13:21;10.80;;;9.57;;
69937;SDS011;57248;47.320;15.998;2022-07-23T06:15:47;11.57;;;10.37;;
69937;SDS011;57248;47.320;15.998;2022-07-23T06:18:13;12.10;;;10.75;;
69937;SDS011;57248;47.320;15.998;2022-07-23T06:20:39;12.67;;;11.37;;
69937;SDS011;57248;47.320;15.998;2022-07-23T06:23:04;12.80;;;11.13;;
69937;SDS011;57248;47.320;15.998;2022-07-23T06:25:30;16.30;;;11.40;;
69937;SDS011;57248;47.320;15.998;2022-07-23T06:27:55;16.05;;;12.30;;
69937;SDS011;57248;47.320;15.998;2022-07-23T06:30:21;12.57;;;10.17;;
69937;SDS011;57248;47.320;15.998;2022-07-23T06:32:47;10.63;;;9.18;;
69937;SDS011;57248;47.320;15.998;2022-07-23T06:35:14;10.18;;;8.98;;
69937;SDS011;57248;47.320;15.998;2022-07-23T06:37:40;12.13;;;8.93;;
69937;SDS011;57248;47.320;15.998;2022-07-23T06:40:06;11.63;;;9.45;;
69937;SDS011;57248;47.320;15.998;2022-07-23T06:42:34;10.25;;;9.23;;
69937;SDS011;57248;47.320;15.998;2022-07-23T06:45:05;10.47;;;9.23;;
69937;SDS011;57248;47.320;15.998;2022-07-23T06:47:35;9.45;;;8.20;;
69937;SDS011;57248;47.320;15.998;2022-07-23T06:50:00;11.27;;;9.20;;
69937;SDS011;57248;47.320;15.998;2022-07-23T06:52:26;10.37;;;9.27;;
69937;SDS011;57248;47.320;15.998;2022-07-23T06:54:52;10.85;;;9.35;;
69937;SDS011;57248;47.320;15.998;2022-07-23T06:57:18;10.83;;;9.20;;
69937;SDS011;57248;47.320;15.998;2022-07-23T06:59:43;11.40;;;9.80;;
69937;SDS011;57248;47.320;15.998;2022-07-23T07:02:09;11.53;;;10.33;;
69937;SDS011;57248;47.320;15.998;2022-07-23T07:04:35;11.73;;;10.57;;
69937;SDS011;57248;47.320;15.998;2022-07-23T07:07:00;12.18;;;11.00;;
69937;SDS011;57248;47.320;15.998;2022-07-23T07:09:26;12.70;;;11.40;;
69937;SDS011;57248;47.320;15.998;2022-07-23T07:11:51;12.90;;;11.60;;
69937;SDS011;57248;47.320;15.998;2022-07-23T07:14:17;12.63;;;11.48;;
69937;SDS011;57248;47.320;15.998;2022-07-23T07:16:42;12.93;;;11.57;;
69937;SDS011;57248;47.320;15.998;2022-07-23T07:19:08;14.10;;;12.90;;
69937;SDS011;57248;47.320;15.998;2022-07-23T07:21:34;14.65;;;13.15;;
69937;SDS011;57248;47.320;15.998;2022-07-23T07:24:00;14.05;;;12.95;;
69937;SDS011;57248;47.320;15.998;2022-07-23T07:26:27;14.48;;;13.05;;
69937;SDS011;57248;47.320;15.998;2022-07-23T07:28:52;20.27;;;14.53;;
69937;SDS011;57248;47.320;15.998;2022-07-23T07:31:18;15.43;;;14.10;;
69937;SDS011;57248;47.320;15.998;2022-07-23T07:33:43;16.00;;;14.45;;
69937;SDS011;57248;47.320;15.998;2022-07-23T07:36:09;18.70;;;17.10;;
69937;SDS011;57248;47.320;15.998;2022-07-23T07:38:34;22.63;;;20.80;;
69937;SDS011;57248;47.320;15.998;2022-07-23T07:41:01;20.02;;;18.27;;
69937;SDS011;57248;47.320;15.998;2022-07-23T07:43:26;18.23;;;16.40;;
69937;SDS011;57248;47.320;15.998;2022-07-23T07:45:52;16.98;;;15.57;;
69937;SDS011;57248;47.320;15.998;2022-07-23T07:48:17;15.73;;;14.30;;
69937;SDS011;57248;47.320;15.998;2022-07-23T07:50:43;16.10;;;14.70;;
69937;SDS011;57248;47.320;15.998;2022-07-23T07:53:08;15.10;;;13.77;;
69937;SDS011;57248;47.320;15.998;2022-07-23T07:55:34;15.83;;;14.47;;
69937;SDS011;57248;47.320;15.998;2022-07-23T07:58:01;17.40;;;16.10;;
69937;SDS011;57248;47.320;15.998;2022-07-23T08:00:27;19.57;;;17.83;;
69937;SDS011;57248;47.320;15.998;2022-07-23T08:02:53;18.38;;;17.05;;
69937;SDS011;57248;47.320;15.998;2022-07-23T08:05:22;17.13;;;15.82;;
69937;SDS011;57248;47.320;15.998;2022-07-23T08:07:52;16.47;;;14.90;;
69937;SDS011;57248;47.320;15.998;2022-07-23T08:10:18;15.85;;;14.57;;
69937;SDS011;57248;47.320;15.998;2022-07-23T08:12:45;18.30;;;16.90;;
69937;SDS011;57248;47.320;15.998;2022-07-23T08:15:13;18.75;;;17.35;;
69937;SDS011;57248;47.320;15.998;2022-07-23T08:17:40;19.33;;;17.73;;
69937;SDS011;57248;47.320;15.998;2022-07-23T08:20:06;21.13;;;19.63;;
69937;SDS011;57248;47.320;15.998;2022-07-23T08:22:43;24.20;;;22.40;;
69937;SDS011;57248;47.320;15.998;2022-07-23T08:25:15;25.73;;;24.02;;
69937;SDS011;57248;47.320;15.998;2022-07-23T08:27:41;20.15;;;18.50;;
69937;SDS011;57248;47.320;15.998;2022-07-23T08:30:08;19.75;;;18.33;;
69937;SDS011;57248;47.320;15.998;2022-07-23T08:32:47;19.07;;;17.33;;
69937;SDS011;57248;47.320;15.998;2022-07-23T08:35:16;15.68;;;14.55;;
69937;SDS011;57248;47.320;15.998;2022-07-23T08:37:42;17.75;;;16.35;;
69937;SDS011;57248;47.320;15.998;2022-07-23T08:40:08;36.57;;;20.03;;
69937;SDS011;57248;47.320;15.998;2022-07-23T08:42:34;20.77;;;19.08;;
69937;SDS011;57248;47.320;15.998;2022-07-23T08:45:02;21.77;;;20.05;;
69937;SDS011;57248;47.320;15.998;2022-07-23T08:47:28;21.77;;;20.17;;
69937;SDS011;57248;47.320;15.998;2022-07-23T08:49:55;22.30;;;20.77;;
69937;SDS011;57248;47.320;15.998;2022-07-23T08:52:23;26.00;;;24.20;;
69937;SDS011;57248;47.320;15.998;2022-07-23T08:54:49;25.42;;;23.45;;
69937;SDS011;57248;47.320;15.998;2022-07-23T08:57:15;19.23;;;17.80;;
69937;SDS011;57248;47.320;15.998;2022-07-23T08:59:41;18.13;;;16.67;;
69937;SDS011;57248;47.320;15.998;2022-07-23T09:02:06;16.30;;;14.77;;
69937;SDS011;57248;47.320;15.998;2022-07-23T09:04:32;18.73;;;16.90;;
69937;SDS011;57248;47.320;15.998;2022-07-23T09:06:58;62.03;;;51.95;;
69937;SDS011;57248;47.320;15.998;2022-07-23T09:09:24;20.63;;;18.97;;
69937;SDS011;57248;47.320;15.998;2022-07-23T09:12:05;18.15;;;16.75;;
69937;SDS011;57248;47.320;15.998;2022-07-23T09:14:42;16.25;;;14.88;;
69937;SDS011;57248;47.320;15.998;2022-07-23T09:17:16;16.10;;;14.80;;
69937;SDS011;57248;47.320;15.998;2022-07-23T09:19:43;16.10;;;14.73;;
69937;SDS011;57248;47.320;15.998;2022-07-23T09:22:26;18.20;;;16.80;;
69937;SDS011;57248;47.320;15.998;2022-07-23T09:25:02;35.90;;;19.27;;
69937;SDS011;57248;47.320;15.998;2022-07-23T09:28:11;35.38;;;19.20;;
69937;SDS011;57248;47.320;15.998;2022-07-23T09:30:32;27.58;;;20.05;;
69937;SDS011;57248;47.320;15.998;2022-07-23T09:33:12;20.08;;;18.48;;
69937;SDS011;57248;47.320;15.998;2022-07-23T09:35:58;17.77;;;16.47;;
69937;SDS011;57248;47.320;15.998;2022-07-23T09:38:23;15.10;;;13.88;;
69937;SDS011;57248;47.320;15.998;2022-07-23T09:41:09;15.20;;;13.80;;
69937;SDS011;57248;47.320;15.998;2022-07-23T09:43:36;13.95;;;12.75;;
69937;SDS011;57248;47.320;15.998;2022-07-23T09:49:11;17.47;;;13.33;;
69937;SDS011;57248;47.320;15.998;2022-07-23T09:51:50;16.73;;;13.50;;
69937;SDS011;57248;47.320;15.998;2022-07-23T09:54:28;15.60;;;14.18;;
69937;SDS011;57248;47.320;15.998;2022-07-23T09:57:12;16.20;;;13.70;;
69937;SDS011;57248;47.320;15.998;2022-07-23T09:59:40;18.95;;;12.90;;
69937;SDS011;57248;47.320;15.998;2022-07-23T10:02:06;19.80;;;12.77;;
69937;SDS011;57248;47.320;15.998;2022-07-23T10:04:44;14.00;;;12.70;;
69937;SDS011;57248;47.320;15.998;2022-07-23T10:07:24;13.52;;;12.43;;
69937;SDS011;57248;47.320;15.998;2022-07-23T10:10:11;13.57;;;12.48;;
69937;SDS011;57248;47.320;15.998;2022-07-23T10:12:59;12.15;;;11.00;;
69937;SDS011;57248;47.320;15.998;2022-07-23T10:15:40;12.53;;;11.30;;
69937;SDS011;57248;47.320;15.998;2022-07-23T10:18:07;13.48;;;12.13;;
69937;SDS011;57248;47.320;15.998;2022-07-23T10:20:36;13.32;;;11.93;;
69937;SDS011;57248;47.320;15.998;2022-07-23T10:25:32;13.15;;;12.05;;
69937;SDS011;57248;47.320;15.998;2022-07-23T10:31:08;14.30;;;13.00;;
69937;SDS011;57248;47.320;15.998;2022-07-23T10:36:59;13.73;;;12.33;;
69937;SDS011;57248;47.320;15.998;2022-07-23T10:39:32;14.73;;;13.32;;
69937;SDS011;57248;47.320;15.998;2022-07-23T10:42:08;16.73;;;15.23;;
69937;SDS011;57248;47.320;15.998;2022-07-23T10:44:38;15.30;;;13.90;;
69937;SDS011;57248;47.320;15.998;2022-07-23T10:47:05;15.07;;;13.77;;
69937;SDS011;57248;47.320;15.998;2022-07-23T10:49:49;15.40;;;13.90;;
69937;SDS011;57248;47.320;15.998;2022-07-23T10:57:09;16.00;;;14.57;;
69937;SDS011;57248;47.320;15.998;2022-07-23T11:02:40;16.93;;;15.50;;
69937;SDS011;57248;47.320;15.998;2022-07-23T11:05:09;16.05;;;14.80;;
69937;SDS011;57248;47.320;15.998;2022-07-23T11:10:40;17.15;;;15.43;;
69937;SDS011;57248;47.320;15.998;2022-07-23T11:16:06;16.97;;;15.60;;
69937;SDS011;57248;47.320;15.998;2022-07-23T11:34:44;24.50;;;22.65;;
69937;SDS011;57248;47.320;15.998;2022-07-23T11:40:05;23.10;;;21.50;;
69937;SDS011;57248;47.320;15.998;2022-07-23T11:42:34;20.20;;;18.33;;
69937;SDS011;57248;47.320;15.998;2022-07-23T11:45:00;18.00;;;16.27;;
69937;SDS011;57248;47.320;15.998;2022-07-23T11:47:26;16.65;;;15.35;;
69937;SDS011;57248;47.320;15.998;2022-07-23T11:49:52;14.43;;;13.03;;
69937;SDS011;57248;47.320;15.998;2022-07-23T11:52:20;15.73;;;14.32;;
69937;SDS011;57248;47.320;15.998;2022-07-23T11:55:03;16.00;;;14.63;;
69937;SDS011;57248;47.320;15.998;2022-07-23T11:57:32;16.17;;;14.77;;
69937;SDS011;57248;47.320;15.998;2022-07-23T12:00:13;18.35;;;16.83;;
69937;SDS011;57248;47.320;15.998;2022-07-23T12:02:41;20.73;;;19.23;;
69937;SDS011;57248;47.320;15.998;2022-07-23T12:05:13;24.70;;;22.80;;
69937;SDS011;57248;47.320;15.998;2022-07-23T12:07:41;32.42;;;30.33;;
69937;SDS011;57248;47.320;15.998;2022-07-23T12:10:18;36.35;;;33.95;;
69937;SDS011;57248;47.320;15.998;2022-07-23T12:12:52;39.08;;;36.13;;
69937;SDS011;57248;47.320;15.998;2022-07-23T12:15:19;38.93;;;36.50;;
69937;SDS011;57248;47.320;15.998;2022-07-23T12:17:47;43.28;;;40.58;;
69937;SDS011;57248;47.320;15.998;2022-07-23T12:20:27;43.03;;;40.22;;
69937;SDS011;57248;47.320;15.998;2022-07-23T12:22:58;36.05;;;33.75;;
69937;SDS011;57248;47.320;15.998;2022-07-23T12:25:26;24.10;;;22.33;;
69937;SDS011;57248;47.320;15.998;2022-07-23T12:28:05;18.33;;;16.73;;
69937;SDS011;57248;47.320;15.998;2022-07-23T12:33:27;19.20;;;17.60;;
69937;SDS011;57248;47.320;15.998;2022-07-23T12:35:56;18.38;;;16.75;;
69937;SDS011;57248;47.320;15.998;2022-07-23T12:38:24;16.50;;;14.93;;
69937;SDS011;57248;47.320;15.998;2022-07-23T12:40:55;16.53;;;14.93;;
69937;SDS011;57248;47.320;15.998;2022-07-23T12:46:17;22.00;;;20.30;;
69937;SDS011;57248;47.320;15.998;2022-07-23T12:51:18;25.30;;;23.20;;
69937;SDS011;57248;47.320;15.998;2022-07-23T12:54:05;27.63;;;25.73;;
69937;SDS011;57248;47.320;15.998;2022-07-23T12:56:39;28.45;;;26.45;;
69937;SDS011;57248;47.320;15.998;2022-07-23T12:59:09;19.20;;;17.60;;
69937;SDS011;57248;47.320;15.998;2022-07-23T13:01:39;22.55;;;20.80;;
69937;SDS011;57248;47.320;15.998;2022-07-23T13:04:07;23.13;;;21.30;;
69937;SDS011;57248;47.320;15.998;2022-07-23T13:06:36;22.47;;;20.60;;
69937;SDS011;57248;47.320;15.998;2022-07-23T13:09:06;18.90;;;17.40;;
69937;SDS011;57248;47.320;15.998;2022-07-23T13:11:33;16.30;;;14.95;;
69937;SDS011;57248;47.320;15.998;2022-07-23T13:13:59;19.10;;;17.40;;
69937;SDS011;57248;47.320;15.998;2022-07-23T13:16:29;20.42;;;18.73;;
69937;SDS011;57248;47.320;15.998;2022-07-23T13:18:56;20.80;;;19.05;;
69937;SDS011;57248;47.320;15.998;2022-07-23T13:21:23;27.23;;;24.75;;
69937;SDS011;57248;47.320;15.998;2022-07-23T13:23:49;17.35;;;15.75;;
69937;SDS011;57248;47.320;15.998;2022-07-23T13:26:14;17.43;;;15.90;;
69937;SDS011;57248;47.320;15.998;2022-07-23T13:28:40;30.58;;;16.85;;
69937;SDS011;57248;47.320;15.998;2022-07-23T13:31:06;17.08;;;12.68;;
69937;SDS011;57248;47.320;15.998;2022-07-23T13:33:33;17.00;;;14.57;;
69937;SDS011;57248;47.320;15.998;2022-07-23T13:35:59;13.98;;;12.73;;
69937;SDS011;57248;47.320;15.998;2022-07-23T13:38:25;15.90;;;14.50;;
69937;SDS011;57248;47.320;15.998;2022-07-23T13:40:51;16.02;;;14.73;;
69937;SDS011;57248;47.320;15.998;2022-07-23T13:43:18;12.63;;;11.48;;
69937;SDS011;57248;47.320;15.998;2022-07-23T13:45:45;13.97;;;12.77;;
69937;SDS011;57248;47.320;15.998;2022-07-23T13:48:12;16.10;;;14.05;;
69937;SDS011;57248;47.320;15.998;2022-07-23T13:50:39;11.50;;;10.25;;
69937;SDS011;57248;47.320;15.998;2022-07-23T13:53:06;12.48;;;9.82;;
69937;SDS011;57248;47.320;15.998;2022-07-23T13:55:36;9.80;;;8.90;;
69937;SDS011;57248;47.320;15.998;2022-07-23T13:58:03;9.70;;;8.60;;
69937;SDS011;57248;47.320;15.998;2022-07-23T14:00:30;11.85;;;10.68;;
69937;SDS011;57248;47.320;15.998;2022-07-23T14:02:58;15.32;;;13.93;;
69937;SDS011;57248;47.320;15.998;2022-07-23T14:05:25;12.52;;;11.48;;
69937;SDS011;57248;47.320;15.998;2022-07-23T14:07:51;12.55;;;11.18;;
69937;SDS011;57248;47.320;15.998;2022-07-23T14:10:18;13.30;;;12.30;;
69937;SDS011;57248;47.320;15.998;2022-07-23T14:12:46;12.80;;;11.70;;
69937;SDS011;57248;47.320;15.998;2022-07-23T14:15:13;13.80;;;12.60;;
69937;SDS011;57248;47.320;15.998;2022-07-23T14:17:40;13.48;;;12.38;;
69937;SDS011;57248;47.320;15.998;2022-07-23T14:20:08;13.52;;;12.43;;
69937;SDS011;57248;47.320;15.998;2022-07-23T14:22:36;12.77;;;11.77;;
69937;SDS011;57248;47.320;15.998;2022-07-23T14:25:02;9.73;;;8.75;;
69937;SDS011;57248;47.320;15.998;2022-07-23T14:27:29;10.15;;;9.18;;
69937;SDS011;57248;47.320;15.998;2022-07-23T14:29:55;11.05;;;9.88;;
69937;SDS011;57248;47.320;15.998;2022-07-23T14:32:22;13.18;;;12.07;;
69937;SDS011;57248;47.320;15.998;2022-07-23T14:34:47;11.23;;;10.23;;
69937;SDS011;57248;47.320;15.998;2022-07-23T14:37:13;10.90;;;10.00;;
69937;SDS011;57248;47.320;15.998;2022-07-23T14:39:40;11.05;;;9.95;;
69937;SDS011;57248;47.320;15.998;2022-07-23T14:42:06;10.80;;;9.90;;
69937;SDS011;57248;47.320;15.998;2022-07-23T14:44:32;8.20;;;7.50;;
69937;SDS011;57248;47.320;15.998;2022-07-23T14:46:58;10.93;;;7.80;;
69937;SDS011;57248;47.320;15.998;2022-07-23T14:49:25;8.70;;;7.78;;
69937;SDS011;57248;47.320;15.998;2022-07-23T14:51:51;8.18;;;7.38;;
69937;SDS011;57248;47.320;15.998;2022-07-23T14:54:17;8.80;;;7.00;;
69937;SDS011;57248;47.320;15.998;2022-07-23T14:56:43;7.93;;;7.22;;
69937;SDS011;57248;47.320;15.998;2022-07-23T14:59:08;9.53;;;8.50;;
69937;SDS011;57248;47.320;15.998;2022-07-23T15:01:34;7.57;;;6.63;;
69937;SDS011;57248;47.320;15.998;2022-07-23T15:04:01;10.17;;;9.27;;
69937;SDS011;57248;47.320;15.998;2022-07-23T15:06:27;12.00;;;9.07;;
69937;SDS011;57248;47.320;15.998;2022-07-23T15:08:53;10.93;;;9.93;;
69937;SDS011;57248;47.320;15.998;2022-07-23T15:11:18;9.50;;;8.73;;
69937;SDS011;57248;47.320;15.998;2022-07-23T15:13:44;10.43;;;9.63;;